createdAt,value
2023-02-18T00:01:25.455Z,99863.22
2023-02-18T00:03:29.507Z,99843.25
2023-02-18T00:05:31.768Z,99865.59
2023-02-18T00:07:35.716Z,99861.28
2023-02-18T00:09:39.212Z,99863.88
2023-02-18T00:11:41.462Z,99843.09
2023-02-18T00:13:44.017Z,99837.72
2023-02-18T00:15:46.143Z,99839.16
2023-02-18T00:17:48.265Z,99843.63
2023-02-18T00:19:50.466Z,99822.75
2023-02-18T00:21:52.508Z,99832.59
2023-02-18T00:23:55.271Z,99824.47
2023-02-18T00:26:17.457Z,99833.50
2023-02-18T00:28:19.797Z,99832.69
2023-02-18T00:30:21.897Z,99833.66
2023-02-18T00:32:24.004Z,99835.47
2023-02-18T00:34:26.170Z,99842.00
2023-02-18T00:36:29.700Z,99835.66
2023-02-18T00:38:32.036Z,99842.91
2023-02-18T00:40:38.101Z,99841.03
2023-02-18T00:42:40.101Z,99817.56
2023-02-18T00:44:43.951Z,99821.97
2023-02-18T00:46:48.419Z,99820.06
2023-02-18T00:48:50.490Z,99818.28
2023-02-18T00:50:52.638Z,99798.72
2023-02-18T00:52:56.868Z,99787.84
2023-02-18T00:54:59.625Z,99785.03
2023-02-18T00:57:01.689Z,99778.50
2023-02-18T00:59:04.058Z,99781.16
2023-02-18T01:01:07.895Z,99787.28
2023-02-18T01:03:10.419Z,99779.16
2023-02-18T01:05:12.881Z,99775.41
2023-02-18T01:07:15.585Z,99774.81
2023-02-18T01:09:17.835Z,99787.16
2023-02-18T01:11:20.155Z,99794.25
2023-02-18T01:13:25.054Z,99784.19
2023-02-18T01:15:27.626Z,99790.50
2023-02-18T01:17:29.982Z,99794.81
2023-02-18T01:19:32.121Z,99782.38
2023-02-18T01:21:35.445Z,99774.28
2023-02-18T01:23:42.993Z,99777.81
2023-02-18T01:25:45.975Z,99767.75
2023-02-18T01:27:48.176Z,99763.16
2023-02-18T01:29:50.223Z,99743.38
2023-02-18T01:31:52.401Z,99736.00
2023-02-18T01:33:55.517Z,99730.28
2023-02-18T01:35:57.609Z,99728.50
2023-02-18T01:37:59.918Z,99734.53
2023-02-18T01:40:02.134Z,99757.94
2023-02-18T01:42:04.677Z,99740.81
2023-02-18T01:44:28.500Z,99747.34
2023-02-18T01:46:32.140Z,99749.84
2023-02-18T01:48:45.003Z,99752.53
2023-02-18T01:50:53.188Z,99754.41
2023-02-18T01:52:55.654Z,99760.56
2023-02-18T01:54:58.217Z,99742.03
2023-02-18T01:57:10.996Z,99742.94
2023-02-18T01:59:25.674Z,99744.13
2023-02-18T02:01:28.224Z,99739.50
2023-02-18T02:03:32.889Z,99742.34
2023-02-18T02:05:35.897Z,99732.47
2023-02-18T02:07:38.309Z,99723.41
2023-02-18T02:09:42.287Z,99725.41
2023-02-18T02:12:18.473Z,99719.69
2023-02-18T02:14:45.552Z,99723.19
2023-02-18T02:16:56.640Z,99729.56
2023-02-18T02:19:06.114Z,99730.66
2023-02-18T02:21:26.741Z,99728.63
2023-02-18T02:23:35.644Z,99721.41
2023-02-18T02:26:00.030Z,99720.56
2023-02-18T02:28:27.222Z,99705.75
2023-02-18T02:31:15.934Z,99708.44
2023-02-18T02:33:59.764Z,99711.91
2023-02-18T02:36:16.537Z,99720.97
2023-02-18T02:38:30.352Z,99724.41
2023-02-18T02:40:43.688Z,99726.28
2023-02-18T02:43:03.994Z,99733.34
2023-02-18T02:45:18.266Z,99727.28
2023-02-18T02:47:38.219Z,99716.63
2023-02-18T02:50:02.442Z,99708.44
2023-02-18T02:52:26.956Z,99698.63
2023-02-18T02:54:31.641Z,99692.38
2023-02-18T02:56:35.642Z,99697.75
2023-02-18T02:58:38.297Z,99708.56
2023-02-18T03:00:43.358Z,99705.84
2023-02-18T03:02:58.791Z,99710.50
2023-02-18T03:05:26.776Z,99702.75
2023-02-18T03:07:55.811Z,99702.50
2023-02-18T03:10:03.887Z,99707.88
2023-02-18T03:12:39.617Z,99706.25
2023-02-18T03:14:57.370Z,99690.72
2023-02-18T03:17:16.103Z,99690.88
2023-02-18T03:19:35.979Z,99691.00
2023-02-18T03:21:37.982Z,99691.03
2023-02-18T03:23:54.266Z,99685.81
2023-02-18T03:25:57.772Z,99682.44
2023-02-18T03:28:09.620Z,99692.19
2023-02-18T03:30:16.060Z,99694.84
2023-02-18T03:32:22.202Z,99701.06
2023-02-18T03:34:29.739Z,99683.22
2023-02-18T03:36:38.249Z,99685.91
2023-02-18T03:39:01.701Z,99692.44
2023-02-18T03:41:06.017Z,99687.81
2023-02-18T03:43:08.702Z,99690.34
2023-02-18T03:45:11.085Z,99674.06
2023-02-18T03:47:13.446Z,99682.22
2023-02-18T03:49:16.404Z,99687.72
2023-02-18T03:51:19.481Z,99683.38
2023-02-18T03:53:21.513Z,99700.34
2023-02-18T03:55:23.418Z,99691.31
2023-02-18T03:57:25.737Z,99692.97
2023-02-18T03:59:27.804Z,99685.09
2023-02-18T04:01:30.009Z,99697.41
2023-02-18T04:03:32.119Z,99689.28
2023-02-18T04:05:34.122Z,99684.66
2023-02-18T04:07:37.072Z,99690.88
2023-02-18T04:09:39.229Z,99689.03
2023-02-18T04:11:42.064Z,99694.38
2023-02-18T04:13:44.302Z,99688.88
2023-02-18T04:15:46.792Z,99694.28
2023-02-18T04:17:51.964Z,99688.81
2023-02-18T04:19:53.864Z,99696.97
2023-02-18T04:21:56.583Z,99696.81
2023-02-18T04:23:58.668Z,99702.97
2023-02-18T04:26:00.778Z,99702.97
2023-02-18T04:28:02.963Z,99691.50
2023-02-18T04:30:06.803Z,99693.19
2023-02-18T04:32:09.232Z,99691.31
2023-02-18T04:34:12.625Z,99697.59
2023-02-18T04:36:14.570Z,99688.56
2023-02-18T04:38:16.980Z,99688.63
2023-02-18T04:40:19.225Z,99697.69
2023-02-18T04:42:21.574Z,99686.88
2023-02-18T04:44:23.633Z,99682.50
2023-02-18T04:46:26.222Z,99689.69
2023-02-18T04:48:28.184Z,99691.25
2023-02-18T04:50:30.134Z,99704.72
2023-02-18T04:52:32.365Z,99694.63
2023-02-18T04:54:34.578Z,99695.50
2023-02-18T04:56:37.294Z,99687.31
2023-02-18T04:58:42.780Z,99686.31
2023-02-18T05:00:44.983Z,99686.13
2023-02-18T05:02:47.815Z,99685.25
2023-02-18T05:04:52.882Z,99688.66
2023-02-18T05:06:55.577Z,99689.66
2023-02-18T05:08:57.628Z,99687.09
2023-02-18T05:10:59.877Z,99691.47
2023-02-18T05:13:02.087Z,99696.72
2023-02-18T05:15:04.428Z,99695.91
2023-02-18T05:17:07.077Z,99707.44
2023-02-18T05:19:10.922Z,99707.34
2023-02-18T05:21:13.222Z,99695.78
2023-02-18T05:23:15.220Z,99707.53
2023-02-18T05:25:17.856Z,99704.91
2023-02-18T05:27:19.871Z,99710.47
2023-02-18T05:29:22.079Z,99717.50
2023-02-18T05:31:24.371Z,99717.44
2023-02-18T05:33:27.174Z,99717.50
2023-02-18T05:35:29.343Z,99716.72
2023-02-18T05:37:31.479Z,99725.81
2023-02-18T05:39:36.725Z,99718.59
2023-02-18T05:41:38.690Z,99722.41
2023-02-18T05:43:59.018Z,99725.19
2023-02-18T05:46:01.084Z,99734.94
2023-02-18T05:48:05.761Z,99731.19
2023-02-18T05:50:08.736Z,99732.88
2023-02-18T05:52:11.639Z,99742.47
2023-02-18T05:54:13.855Z,99751.41
2023-02-18T05:56:16.064Z,99759.63
2023-02-18T05:58:20.391Z,99750.53
2023-02-18T06:00:22.701Z,99758.63
2023-02-18T06:02:24.986Z,99774.81
2023-02-18T06:04:27.919Z,99769.44
2023-02-18T06:06:30.126Z,99769.34
2023-02-18T06:08:32.278Z,99779.19
2023-02-18T06:10:34.393Z,99787.22
2023-02-18T06:12:37.012Z,99772.13
2023-02-18T06:14:42.382Z,99777.00
2023-02-18T06:16:44.584Z,99792.91
2023-02-18T06:18:49.359Z,99791.22
2023-02-18T06:20:51.610Z,99778.09
2023-02-18T06:22:53.820Z,99786.09
2023-02-18T06:24:56.031Z,99792.16
2023-02-18T06:26:58.203Z,99790.16
2023-02-18T06:29:00.697Z,99793.66
2023-02-18T06:31:03.101Z,99791.75
2023-02-18T06:33:05.455Z,99788.09
2023-02-18T06:35:08.033Z,99797.25
2023-02-18T06:37:10.345Z,99791.91
2023-02-18T06:39:13.142Z,99788.09
2023-02-18T06:41:15.655Z,99783.66
2023-02-18T06:43:18.450Z,99788.09
2023-02-18T06:45:20.477Z,99796.25
2023-02-18T06:47:22.439Z,99787.19
2023-02-18T06:49:24.623Z,99790.66
2023-02-18T06:51:26.883Z,99801.44
2023-02-18T06:53:28.856Z,99791.56
2023-02-18T06:55:31.004Z,99795.31
2023-02-18T06:57:33.287Z,99804.22
2023-02-18T06:59:35.357Z,99788.88
2023-02-18T07:01:37.774Z,99793.44
2023-02-18T07:03:39.814Z,99796.81
2023-02-18T07:05:42.531Z,99790.50
2023-02-18T07:07:47.867Z,99805.81
2023-02-18T07:09:50.132Z,99803.13
2023-02-18T07:11:52.207Z,99786.97
2023-02-18T07:13:54.349Z,99786.06
2023-02-18T07:15:56.557Z,99781.59
2023-02-18T07:17:58.830Z,99788.88
2023-02-18T07:20:01.250Z,99773.59
2023-02-18T07:22:03.340Z,99776.28
2023-02-18T07:24:05.987Z,99777.97
2023-02-18T07:26:11.314Z,99781.72
2023-02-18T07:28:13.623Z,99777.97
2023-02-18T07:30:16.094Z,99778.91
2023-02-18T07:32:19.513Z,99794.19
2023-02-18T07:34:21.592Z,99787.84
2023-02-18T07:36:23.644Z,99789.78
2023-02-18T07:38:26.903Z,99776.94
2023-02-18T07:40:28.749Z,99781.47
2023-02-18T07:42:30.849Z,99787.47
2023-02-18T07:44:32.997Z,99785.78
2023-02-18T07:46:43.356Z,99786.59
2023-02-18T07:48:45.595Z,99786.41
2023-02-18T07:50:48.148Z,99797.88
2023-02-18T07:52:50.146Z,99797.88
2023-02-18T07:54:52.232Z,99795.03
2023-02-18T07:56:55.064Z,99796.75
2023-02-18T07:58:57.504Z,99804.91
2023-02-18T08:00:59.946Z,99810.19
2023-02-18T08:03:02.031Z,99805.59
2023-02-18T08:05:03.906Z,99811.97
2023-02-18T08:07:06.518Z,99815.53
2023-02-18T08:09:08.867Z,99819.88
2023-02-18T08:11:19.481Z,99818.09
2023-02-18T08:13:21.888Z,99813.72
2023-02-18T08:15:23.919Z,99821.97
2023-02-18T08:17:28.790Z,99811.09
2023-02-18T08:19:31.133Z,99810.09
2023-02-18T08:21:33.597Z,99812.72
2023-02-18T08:23:35.778Z,99805.59
2023-02-18T08:25:38.196Z,99802.06
2023-02-18T08:27:40.448Z,99811.81
2023-02-18T08:29:42.703Z,99816.22
2023-02-18T08:31:45.047Z,99820.56
2023-02-18T08:33:47.645Z,99820.56
2023-02-18T08:35:51.804Z,99822.31
2023-02-18T08:37:54.523Z,99826.00
2023-02-18T08:39:56.945Z,99825.00
2023-02-18T08:41:59.060Z,99818.63
2023-02-18T08:44:01.088Z,99826.69
2023-02-18T08:46:03.659Z,99821.25
2023-02-18T08:48:15.883Z,99823.00
2023-02-18T08:50:26.158Z,99827.38
2023-02-18T08:52:28.741Z,99821.00
2023-02-18T08:54:31.471Z,99832.78
2023-02-18T08:56:36.159Z,99829.13
2023-02-18T08:58:38.641Z,99827.22
2023-02-18T09:00:42.386Z,99824.44
2023-02-18T09:02:44.965Z,99826.34
2023-02-18T09:04:46.933Z,99823.69
2023-02-18T09:06:50.252Z,99829.25
2023-02-18T09:08:52.955Z,99829.03
2023-02-18T09:10:59.457Z,99825.34
2023-02-18T09:13:03.892Z,99821.69
2023-02-18T09:15:06.466Z,99826.03
2023-02-18T09:17:09.010Z,99828.59
2023-02-18T09:19:11.153Z,99834.84
2023-02-18T09:21:16.157Z,99841.97
2023-02-18T09:23:21.428Z,99839.41
2023-02-18T09:25:23.878Z,99836.50
2023-02-18T09:27:26.230Z,99834.66
2023-02-18T09:29:28.800Z,99838.09
2023-02-18T09:31:31.009Z,99840.75
2023-02-18T09:33:36.452Z,99845.19
2023-02-18T09:35:43.377Z,99835.41
2023-02-18T09:37:47.663Z,99845.94
2023-02-18T09:39:49.767Z,99846.69
2023-02-18T09:42:04.373Z,99844.00
2023-02-18T09:44:16.614Z,99851.06
2023-02-18T09:46:46.941Z,99850.94
2023-02-18T09:48:51.950Z,99856.16
2023-02-18T09:50:54.354Z,99850.63
2023-02-18T09:52:59.368Z,99848.69
2023-02-18T09:55:14.604Z,99858.53
2023-02-18T09:57:39.449Z,99856.19
2023-02-18T09:59:43.075Z,99850.78
2023-02-18T10:01:48.414Z,99854.31
2023-02-18T10:03:51.202Z,99849.41
2023-02-18T10:06:12.817Z,99846.88
2023-02-18T10:08:26.159Z,99846.81
2023-02-18T10:10:47.199Z,99852.88
2023-02-18T10:12:53.732Z,99845.41
2023-02-18T10:15:01.574Z,99846.13
2023-02-18T10:17:05.593Z,99847.97
2023-02-18T10:19:32.666Z,99846.22
2023-02-18T10:21:37.246Z,99842.38
2023-02-18T10:23:43.593Z,99842.50
2023-02-18T10:25:49.134Z,99843.91
2023-02-18T10:27:54.508Z,99836.78
2023-02-18T10:30:02.695Z,99827.63
2023-02-18T10:32:24.162Z,99834.09
2023-02-18T10:34:46.199Z,99830.72
2023-02-18T10:36:56.272Z,99833.13
2023-02-18T10:39:21.695Z,99839.41
2023-02-18T10:41:42.614Z,99830.19
2023-02-18T10:44:08.839Z,99834.88
2023-02-18T10:46:37.683Z,99832.09
2023-02-18T10:48:46.042Z,99828.38
2023-02-18T10:50:49.040Z,99827.22
2023-02-18T10:52:55.469Z,99815.31
2023-02-18T10:55:00.548Z,99821.34
2023-02-18T10:57:04.884Z,99812.38
2023-02-18T10:59:27.933Z,99809.66
2023-02-18T11:01:31.769Z,99813.97
2023-02-18T11:03:46.984Z,99811.19
2023-02-18T11:05:52.740Z,99821.59
2023-02-18T11:07:58.362Z,99819.25
2023-02-18T11:10:17.386Z,99815.38
2023-02-18T11:12:27.767Z,99814.72
2023-02-18T11:14:43.201Z,99814.94
2023-02-18T11:16:47.628Z,99810.13
2023-02-18T11:18:52.453Z,99809.25
2023-02-18T11:21:24.704Z,99805.81
2023-02-18T11:23:26.934Z,99807.28
2023-02-18T11:25:35.005Z,99800.72
2023-02-18T11:27:51.202Z,99798.91
2023-02-18T11:30:00.972Z,99805.03
2023-02-18T11:32:03.454Z,99794.81
2023-02-18T11:34:06.524Z,99783.88
2023-02-18T11:36:22.172Z,99787.75
2023-02-18T11:38:34.520Z,99780.28
2023-02-18T11:40:37.358Z,99770.25
2023-02-18T11:42:39.824Z,99768.16
2023-02-18T11:44:48.690Z,99779.13
2023-02-18T11:47:17.090Z,99780.19
2023-02-18T11:49:24.395Z,99781.59
2023-02-18T11:51:38.264Z,99784.06
2023-02-18T11:53:53.489Z,99774.06
2023-02-18T11:56:01.569Z,99765.94
2023-02-18T11:58:06.382Z,99757.78
2023-02-18T12:00:24.900Z,99752.38
2023-02-18T12:02:30.156Z,99759.72
2023-02-18T12:04:55.069Z,99752.59
2023-02-18T12:07:05.839Z,99763.34
2023-02-18T12:09:34.507Z,99750.84
2023-02-18T12:11:43.663Z,99756.00
2023-02-18T12:13:57.170Z,99747.69
2023-02-18T12:16:16.067Z,99756.53
2023-02-18T12:18:50.412Z,99763.84
2023-02-18T12:21:08.467Z,99754.53
2023-02-18T12:23:22.627Z,99757.00
2023-02-18T12:25:24.919Z,99757.25
2023-02-18T12:27:30.191Z,99747.47
2023-02-18T12:29:44.267Z,99737.50
2023-02-18T12:31:52.342Z,99747.28
2023-02-18T12:34:13.365Z,99740.38
2023-02-18T12:36:25.185Z,99733.78
2023-02-18T12:38:39.106Z,99729.25
2023-02-18T12:40:53.219Z,99728.38
2023-02-18T12:43:18.154Z,99725.78
2023-02-18T12:45:55.053Z,99719.88
2023-02-18T12:48:09.060Z,99716.09
2023-02-18T12:50:26.051Z,99718.06
2023-02-18T12:52:43.135Z,99712.50
2023-02-18T12:55:00.555Z,99699.78
2023-02-18T12:57:10.939Z,99700.50
2023-02-18T12:59:43.834Z,99701.44
2023-02-18T13:01:58.158Z,99699.53
2023-02-18T13:04:16.031Z,99704.72
2023-02-18T13:06:34.314Z,99699.59
2023-02-18T13:08:52.207Z,99696.59
2023-02-18T13:11:04.876Z,99686.28
2023-02-18T13:13:22.691Z,99690.66
2023-02-18T13:15:33.690Z,99674.38
2023-02-18T13:17:39.812Z,99689.81
2023-02-18T13:20:05.748Z,99691.47
2023-02-18T13:22:12.971Z,99679.50
2023-02-18T13:24:27.763Z,99686.59
2023-02-18T13:26:32.571Z,99682.16
2023-02-18T13:28:37.485Z,99684.16
2023-02-18T13:30:50.385Z,99686.06
2023-02-18T13:33:10.603Z,99678.34
2023-02-18T13:35:49.186Z,99680.25
2023-02-18T13:38:42.509Z,99677.97
2023-02-18T13:40:48.205Z,99678.94
2023-02-18T13:42:54.176Z,99671.81
2023-02-18T13:44:56.350Z,99679.81
2023-02-18T13:46:59.981Z,99684.59
2023-02-18T13:49:01.945Z,99679.19
2023-02-18T13:51:06.353Z,99675.78
2023-02-18T13:53:08.421Z,99676.47
2023-02-18T13:55:24.123Z,99668.63
2023-02-18T13:57:28.945Z,99672.09
2023-02-18T13:59:46.369Z,99668.94
2023-02-18T14:01:50.789Z,99671.84
2023-02-18T14:03:56.600Z,99661.31
2023-02-18T14:05:58.940Z,99660.50
2023-02-18T14:08:12.244Z,99664.94
2023-02-18T14:10:14.363Z,99652.69
2023-02-18T14:12:46.048Z,99650.72
2023-02-18T14:14:48.315Z,99657.13
2023-02-18T14:17:21.414Z,99645.75
2023-02-18T14:19:30.667Z,99654.38
2023-02-18T14:21:44.197Z,99650.00
2023-02-18T14:23:52.262Z,99652.19
2023-02-18T14:26:17.434Z,99657.47
2023-02-18T14:28:34.839Z,99653.72
2023-02-18T14:30:42.580Z,99656.72
2023-02-18T14:32:46.558Z,99647.03
2023-02-18T14:35:07.220Z,99648.28
2023-02-18T14:37:40.038Z,99646.66
2023-02-18T14:39:56.611Z,99654.56
2023-02-18T14:42:11.192Z,99656.66
2023-02-18T14:44:43.172Z,99644.28
2023-02-18T14:47:06.335Z,99658.31
2023-02-18T14:49:23.569Z,99651.72
2023-02-18T14:51:29.763Z,99652.59
2023-02-18T14:53:44.418Z,99662.38
2023-02-18T14:55:50.161Z,99639.03
2023-02-18T14:57:57.652Z,99631.88
2023-02-18T15:00:00.172Z,99627.34
2023-02-18T15:02:02.302Z,99621.09
2023-02-18T15:04:05.296Z,99619.25
2023-02-18T15:06:28.195Z,99608.69
2023-02-18T15:08:39.010Z,99606.22
2023-02-18T15:10:43.819Z,99595.34
2023-02-18T15:12:46.050Z,99587.34
2023-02-18T15:14:51.598Z,99594.78
2023-02-18T15:16:54.315Z,99589.38
2023-02-18T15:18:59.751Z,99586.69
2023-02-18T15:21:06.478Z,99592.47
2023-02-18T15:23:15.878Z,99590.78
2023-02-18T15:25:18.191Z,99595.97
2023-02-18T15:27:29.203Z,99582.31
2023-02-18T15:29:35.938Z,99591.34
2023-02-18T15:31:40.168Z,99588.63
2023-02-18T15:33:47.683Z,99584.19
2023-02-18T15:35:49.981Z,99580.69
2023-02-18T15:37:56.245Z,99577.06
2023-02-18T15:39:58.975Z,99575.25
2023-02-18T15:42:27.693Z,99574.50
2023-02-18T15:44:32.954Z,99579.03
2023-02-18T15:46:35.265Z,99569.19
2023-02-18T15:48:46.991Z,99566.88
2023-02-18T15:50:56.910Z,99578.38
2023-02-18T15:53:09.436Z,99574.00
2023-02-18T15:55:26.112Z,99574.00
2023-02-18T15:57:29.870Z,99565.03
2023-02-18T15:59:43.285Z,99565.22
2023-02-18T16:01:58.252Z,99557.13
2023-02-18T16:04:00.626Z,99556.88
2023-02-18T16:06:16.940Z,99544.59
2023-02-18T16:08:27.826Z,99548.53
2023-02-18T16:10:33.477Z,99552.84
2023-02-18T16:12:39.330Z,99545.69
2023-02-18T16:14:48.427Z,99555.78
2023-02-18T16:17:29.176Z,99564.06
2023-02-18T16:19:32.517Z,99548.75
2023-02-18T16:21:40.208Z,99549.94
2023-02-18T16:23:44.476Z,99555.06
2023-02-18T16:25:51.397Z,99546.22
2023-02-18T16:27:59.603Z,99554.25
2023-02-18T16:30:21.038Z,99552.47
2023-02-18T16:32:23.288Z,99566.94
2023-02-18T16:34:28.538Z,99565.25
2023-02-18T16:36:30.915Z,99561.47
2023-02-18T16:38:33.458Z,99579.38
2023-02-18T16:40:43.193Z,99576.34
2023-02-18T16:42:45.297Z,99585.09
2023-02-18T16:44:48.296Z,99585.88
2023-02-18T16:46:50.837Z,99573.03
2023-02-18T16:48:57.609Z,99577.66
2023-02-18T16:51:02.521Z,99564.53
2023-02-18T16:53:04.797Z,99571.00
2023-02-18T16:55:18.914Z,99553.16
2023-02-18T16:57:21.760Z,99568.47
2023-02-18T16:59:23.758Z,99565.78
2023-02-18T17:01:41.697Z,99570.50
2023-02-18T17:03:43.878Z,99558.84
2023-02-18T17:05:45.919Z,99566.03
2023-02-18T17:07:48.220Z,99558.69
2023-02-18T17:09:50.368Z,99557.88
2023-02-18T17:11:57.678Z,99553.38
2023-02-18T17:14:00.504Z,99558.84
2023-02-18T17:16:02.797Z,99560.88
2023-02-18T17:18:22.215Z,99549.19
2023-02-18T17:20:24.581Z,99563.50
2023-02-18T17:22:27.295Z,99558.25
2023-02-18T17:24:29.436Z,99546.88
2023-02-18T17:26:32.425Z,99549.50
2023-02-18T17:28:34.400Z,99558.19
2023-02-18T17:30:39.553Z,99558.97
2023-02-18T17:32:43.191Z,99559.88
2023-02-18T17:34:45.241Z,99572.34
2023-02-18T17:36:47.397Z,99580.41
2023-02-18T17:38:52.404Z,99568.72
2023-02-18T17:40:54.595Z,99568.63
2023-02-18T17:42:57.065Z,99556.66
2023-02-18T17:44:59.039Z,99563.06
2023-02-18T17:47:01.163Z,99564.75
2023-02-18T17:49:03.265Z,99576.34
2023-02-18T17:51:15.906Z,99565.56
2023-02-18T17:53:19.347Z,99554.47
2023-02-18T17:55:25.695Z,99545.50
2023-02-18T17:57:27.691Z,99530.19
2023-02-18T17:59:30.593Z,99526.78
2023-02-18T18:01:33.073Z,99521.44
2023-02-18T18:03:35.431Z,99517.88
2023-02-18T18:05:40.001Z,99506.28
2023-02-18T18:07:42.492Z,99507.09
2023-02-18T18:09:45.844Z,99511.91
2023-02-18T18:11:47.893Z,99513.66
2023-02-18T18:13:50.782Z,99516.44
2023-02-18T18:15:53.710Z,99521.75
2023-02-18T18:17:57.844Z,99527.16
2023-02-18T18:19:59.813Z,99512.72
2023-02-18T18:22:02.124Z,99519.72
2023-02-18T18:24:04.362Z,99507.91
2023-02-18T18:26:06.532Z,99501.56
2023-02-18T18:28:09.528Z,99509.00
2023-02-18T18:30:12.023Z,99520.75
2023-02-18T18:32:13.960Z,99500.19
2023-02-18T18:34:19.334Z,99488.59
2023-02-18T18:36:24.371Z,99493.25
2023-02-18T18:38:30.809Z,99499.28
2023-02-18T18:40:33.543Z,99497.56
2023-02-18T18:42:35.698Z,99497.56
2023-02-18T18:44:37.787Z,99485.03
2023-02-18T18:46:39.858Z,99494.91
2023-02-18T18:48:41.965Z,99474.38
2023-02-18T18:50:44.685Z,99476.13
2023-02-18T18:52:48.233Z,99468.91
2023-02-18T18:54:50.208Z,99467.72
2023-02-18T18:56:53.565Z,99470.38
2023-02-18T18:58:55.859Z,99463.22
2023-02-18T19:01:01.272Z,99472.19
2023-02-18T19:03:05.399Z,99475.03
2023-02-18T19:05:28.548Z,99479.69
2023-02-18T19:07:31.110Z,99482.25
2023-02-18T19:09:33.487Z,99482.25
2023-02-18T19:11:37.149Z,99520.75
2023-02-18T19:13:39.524Z,99503.59
2023-02-18T19:15:42.519Z,99499.44
2023-02-18T19:17:52.737Z,99499.28
2023-02-18T19:19:54.842Z,99506.22
2023-02-18T19:21:56.788Z,99498.03
2023-02-18T19:24:00.083Z,99490.97
2023-02-18T19:26:02.213Z,99495.88
2023-02-18T19:28:07.838Z,99478.03
2023-02-18T19:30:15.558Z,99489.47
2023-02-18T19:32:17.611Z,99478.69
2023-02-18T19:34:19.797Z,99494.00
2023-02-18T19:36:22.051Z,99477.16
2023-02-18T19:38:26.573Z,99476.94
2023-02-18T19:40:30.800Z,99477.22
2023-02-18T19:42:33.685Z,99501.34
2023-02-18T19:44:35.747Z,99503.16
2023-02-18T19:46:37.760Z,99499.38
2023-02-18T19:48:40.306Z,99484.88
2023-02-18T19:50:45.293Z,99484.94
2023-02-18T19:52:47.519Z,99475.34
2023-02-18T19:54:49.748Z,99468.25
2023-02-18T19:56:51.664Z,99467.47
2023-02-18T19:58:56.958Z,99472.84
2023-02-18T20:00:59.009Z,99461.84
2023-02-18T20:03:01.241Z,99461.03
2023-02-18T20:05:03.733Z,99461.19
2023-02-18T20:07:05.794Z,99466.59
2023-02-18T20:09:07.887Z,99458.56
2023-02-18T20:11:10.264Z,99461.41
2023-02-18T20:13:12.492Z,99434.63
2023-02-18T20:15:15.014Z,99444.59
2023-02-18T20:17:17.574Z,99428.34
2023-02-18T20:19:26.473Z,99430.97
2023-02-18T20:21:28.714Z,99430.41
2023-02-18T20:23:30.864Z,99431.59
2023-02-18T20:25:33.337Z,99434.34
2023-02-18T20:27:41.143Z,99419.91
2023-02-18T20:29:47.494Z,99411.31
2023-02-18T20:31:51.923Z,99423.72
2023-02-18T20:33:56.934Z,99414.75
2023-02-18T20:35:59.048Z,99410.28
2023-02-18T20:38:01.094Z,99415.63
2023-02-18T20:40:04.105Z,99415.63
2023-02-18T20:42:15.850Z,99407.69
2023-02-18T20:44:20.055Z,99415.69
2023-02-18T20:46:22.216Z,99422.09
2023-02-18T20:48:24.587Z,99423.22
2023-02-18T20:50:26.969Z,99426.69
2023-02-18T20:52:29.327Z,99418.47
2023-02-18T20:54:31.565Z,99428.34
2023-02-18T20:56:34.091Z,99442.78
2023-02-18T20:58:36.548Z,99434.41
2023-02-18T21:00:38.623Z,99437.91
2023-02-18T21:02:40.802Z,99440.59
2023-02-18T21:04:43.395Z,99442.63
2023-02-18T21:06:49.256Z,99454.22
2023-02-18T21:08:54.309Z,99450.50
2023-02-18T21:10:57.401Z,99454.00
2023-02-18T21:13:00.447Z,99449.47
2023-02-18T21:15:03.246Z,99456.59
2023-02-18T21:17:06.124Z,99459.19
2023-02-18T21:19:12.719Z,99465.72
2023-02-18T21:21:15.466Z,99479.94
2023-02-18T21:23:17.810Z,99485.47
2023-02-18T21:25:20.068Z,99485.59
2023-02-18T21:27:22.445Z,99481.16
2023-02-18T21:29:25.133Z,99483.22
2023-02-18T21:31:30.068Z,99483.00
2023-02-18T21:33:32.202Z,99480.38
2023-02-18T21:35:39.769Z,99476.75
2023-02-18T21:37:41.805Z,99475.63
2023-02-18T21:39:44.433Z,99476.66
2023-02-18T21:41:46.497Z,99468.72
2023-02-18T21:43:49.085Z,99467.03
2023-02-18T21:45:50.977Z,99469.69
2023-02-18T21:47:54.291Z,99465.97
2023-02-18T21:49:56.350Z,99480.09
2023-02-18T21:52:08.458Z,99475.06
2023-02-18T21:54:10.584Z,99483.81
2023-02-18T21:56:12.936Z,99472.78
2023-02-18T21:58:16.063Z,99475.63
2023-02-18T22:00:21.169Z,99469.22
2023-02-18T22:02:32.746Z,99473.94
2023-02-18T22:04:36.985Z,99476.66
2023-02-18T22:06:39.103Z,99471.09
2023-02-18T22:08:41.119Z,99484.66
2023-02-18T22:10:43.184Z,99490.94
2023-02-18T22:12:45.607Z,99474.03
2023-02-18T22:14:48.104Z,99460.78
2023-02-18T22:16:50.449Z,99471.63
2023-02-18T22:18:52.432Z,99465.41
2023-02-18T22:20:57.004Z,99471.56
2023-02-18T22:22:59.190Z,99473.38
2023-02-18T22:25:01.447Z,99474.25
2023-02-18T22:27:03.682Z,99468.66
2023-02-18T22:29:06.344Z,99469.03
2023-02-18T22:31:13.621Z,99459.47
2023-02-18T22:33:15.813Z,99465.56
2023-02-18T22:35:17.815Z,99463.69
2023-02-18T22:37:19.855Z,99469.28
2023-02-18T22:39:21.900Z,99472.84
2023-02-18T22:41:25.909Z,99477.38
2023-02-18T22:43:28.023Z,99479.19
2023-02-18T22:45:30.308Z,99485.41
2023-02-18T22:47:32.341Z,99490.13
2023-02-18T22:49:34.751Z,99496.38
2023-02-18T22:51:39.917Z,99498.13
2023-02-18T22:53:42.627Z,99502.72
2023-02-18T22:55:45.144Z,99502.84
2023-02-18T22:57:47.302Z,99504.59
2023-02-18T22:59:49.719Z,99502.78
2023-02-18T23:01:53.241Z,99498.56
2023-02-18T23:03:57.760Z,99489.81
2023-02-18T23:06:05.252Z,99497.94
2023-02-18T23:08:07.614Z,99502.31
2023-02-18T23:10:09.623Z,99501.41
2023-02-18T23:12:11.694Z,99506.63
2023-02-18T23:14:19.942Z,99507.22
2023-02-18T23:16:22.807Z,99509.84
2023-02-18T23:18:26.008Z,99507.22
2023-02-18T23:20:46.436Z,99510.16
2023-02-18T23:22:48.479Z,99500.63
2023-02-18T23:24:50.996Z,99502.16
2023-02-18T23:26:56.154Z,99504.81
2023-02-18T23:28:58.391Z,99498.47
2023-02-18T23:31:00.650Z,99497.03
2023-02-18T23:33:02.769Z,99504.34
2023-02-18T23:35:05.290Z,99499.72
2023-02-18T23:37:07.419Z,99511.28
2023-02-18T23:39:11.327Z,99503.53
2023-02-18T23:41:13.505Z,99507.19
2023-02-18T23:43:16.024Z,99514.53
2023-02-18T23:45:17.974Z,99509.28
2023-02-18T23:47:20.324Z,99508.53
2023-02-18T23:49:25.396Z,99505.03
2023-02-18T23:51:28.056Z,99506.88
2023-02-18T23:53:32.262Z,99520.28
2023-02-18T23:55:34.407Z,99520.34
2023-02-18T23:57:36.939Z,99515.00
2023-02-18T23:59:39.083Z,99516.91
